sensor_id;sensor_type;location;lat;lon;timestamp;P1;durP1;ratioP1;P2;durP2;ratioP2
18449;SDS011;9354;50.194;7.690;2023-05-21T00:00:38;20.57;;;12.20;;
18449;SDS011;9354;50.194;7.690;2023-05-21T00:03:05;22.57;;;11.87;;
18449;SDS011;9354;50.194;7.690;2023-05-21T00:05:38;22.20;;;11.77;;
18449;SDS011;9354;50.194;7.690;2023-05-21T00:08:06;21.83;;;11.43;;
18449;SDS011;9354;50.194;7.690;2023-05-21T00:10:33;20.63;;;12.83;;
18449;SDS011;9354;50.194;7.690;2023-05-21T00:13:00;21.10;;;11.80;;
18449;SDS011;9354;50.194;7.690;2023-05-21T00:15:28;22.90;;;11.73;;
18449;SDS011;9354;50.194;7.690;2023-05-21T00:17:56;19.03;;;11.47;;
18449;SDS011;9354;50.194;7.690;2023-05-21T00:20:24;22.63;;;12.00;;
18449;SDS011;9354;50.194;7.690;2023-05-21T00:22:53;25.97;;;11.40;;
18449;SDS011;9354;50.194;7.690;2023-05-21T00:25:21;21.47;;;12.90;;
18449;SDS011;9354;50.194;7.690;2023-05-21T00:27:48;19.67;;;11.67;;
18449;SDS011;9354;50.194;7.690;2023-05-21T00:30:15;23.73;;;13.50;;
18449;SDS011;9354;50.194;7.690;2023-05-21T00:32:43;23.67;;;12.80;;
18449;SDS011;9354;50.194;7.690;2023-05-21T00:35:11;22.93;;;12.00;;
18449;SDS011;9354;50.194;7.690;2023-05-21T00:37:39;22.00;;;11.83;;
18449;SDS011;9354;50.194;7.690;2023-05-21T00:40:07;21.13;;;11.77;;
18449;SDS011;9354;50.194;7.690;2023-05-21T00:42:36;24.77;;;12.10;;
18449;SDS011;9354;50.194;7.690;2023-05-21T00:45:07;22.70;;;11.93;;
18449;SDS011;9354;50.194;7.690;2023-05-21T00:47:34;22.80;;;12.77;;
18449;SDS011;9354;50.194;7.690;2023-05-21T00:50:02;21.63;;;12.37;;
18449;SDS011;9354;50.194;7.690;2023-05-21T00:52:33;21.77;;;11.93;;
18449;SDS011;9354;50.194;7.690;2023-05-21T00:55:06;20.87;;;11.90;;
18449;SDS011;9354;50.194;7.690;2023-05-21T00:57:35;21.00;;;11.60;;
18449;SDS011;9354;50.194;7.690;2023-05-21T01:00:03;19.53;;;11.57;;
18449;SDS011;9354;50.194;7.690;2023-05-21T01:02:33;20.60;;;12.20;;
18449;SDS011;9354;50.194;7.690;2023-05-21T01:05:01;22.13;;;13.03;;
18449;SDS011;9354;50.194;7.690;2023-05-21T01:07:33;20.57;;;11.40;;
18449;SDS011;9354;50.194;7.690;2023-05-21T01:10:02;19.60;;;11.40;;
18449;SDS011;9354;50.194;7.690;2023-05-21T01:12:30;24.97;;;12.43;;
18449;SDS011;9354;50.194;7.690;2023-05-21T01:14:58;24.73;;;12.30;;
18449;SDS011;9354;50.194;7.690;2023-05-21T01:17:28;26.10;;;12.77;;
18449;SDS011;9354;50.194;7.690;2023-05-21T01:19:56;22.50;;;12.70;;
18449;SDS011;9354;50.194;7.690;2023-05-21T01:22:24;23.47;;;12.30;;
18449;SDS011;9354;50.194;7.690;2023-05-21T01:24:55;21.77;;;12.77;;
18449;SDS011;9354;50.194;7.690;2023-05-21T01:27:22;19.73;;;11.53;;
18449;SDS011;9354;50.194;7.690;2023-05-21T01:29:50;23.57;;;12.97;;
18449;SDS011;9354;50.194;7.690;2023-05-21T01:32:19;20.60;;;11.23;;
18449;SDS011;9354;50.194;7.690;2023-05-21T01:34:55;23.47;;;12.40;;
18449;SDS011;9354;50.194;7.690;2023-05-21T01:37:29;21.67;;;11.33;;
18449;SDS011;9354;50.194;7.690;2023-05-21T01:40:01;21.97;;;11.27;;
18449;SDS011;9354;50.194;7.690;2023-05-21T01:42:34;23.10;;;11.73;;
18449;SDS011;9354;50.194;7.690;2023-05-21T01:45:04;20.37;;;11.73;;
18449;SDS011;9354;50.194;7.690;2023-05-21T01:47:33;20.13;;;11.47;;
18449;SDS011;9354;50.194;7.690;2023-05-21T01:50:03;19.87;;;10.97;;
18449;SDS011;9354;50.194;7.690;2023-05-21T01:52:31;20.27;;;12.00;;
18449;SDS011;9354;50.194;7.690;2023-05-21T01:55:00;21.47;;;11.70;;
18449;SDS011;9354;50.194;7.690;2023-05-21T01:57:28;21.17;;;12.23;;
18449;SDS011;9354;50.194;7.690;2023-05-21T01:59:55;23.70;;;12.40;;
18449;SDS011;9354;50.194;7.690;2023-05-21T02:02:23;23.20;;;11.67;;
18449;SDS011;9354;50.194;7.690;2023-05-21T02:04:50;21.77;;;12.43;;
18449;SDS011;9354;50.194;7.690;2023-05-21T02:07:18;21.23;;;12.20;;
18449;SDS011;9354;50.194;7.690;2023-05-21T02:09:45;22.13;;;12.27;;
18449;SDS011;9354;50.194;7.690;2023-05-21T02:12:14;20.77;;;11.20;;
18449;SDS011;9354;50.194;7.690;2023-05-21T02:14:41;21.57;;;11.33;;
18449;SDS011;9354;50.194;7.690;2023-05-21T02:17:08;21.50;;;11.90;;
18449;SDS011;9354;50.194;7.690;2023-05-21T02:19:36;22.30;;;11.87;;
18449;SDS011;9354;50.194;7.690;2023-05-21T02:22:03;21.80;;;12.10;;
18449;SDS011;9354;50.194;7.690;2023-05-21T02:24:31;21.13;;;11.60;;
18449;SDS011;9354;50.194;7.690;2023-05-21T02:26:58;22.47;;;12.27;;
18449;SDS011;9354;50.194;7.690;2023-05-21T02:29:27;21.20;;;11.67;;
18449;SDS011;9354;50.194;7.690;2023-05-21T02:31:54;20.83;;;11.67;;
18449;SDS011;9354;50.194;7.690;2023-05-21T02:34:22;21.37;;;12.03;;
18449;SDS011;9354;50.194;7.690;2023-05-21T02:36:50;19.60;;;11.37;;
18449;SDS011;9354;50.194;7.690;2023-05-21T02:39:17;23.53;;;12.93;;
18449;SDS011;9354;50.194;7.690;2023-05-21T02:41:45;22.40;;;11.97;;
18449;SDS011;9354;50.194;7.690;2023-05-21T02:44:13;19.37;;;11.30;;
18449;SDS011;9354;50.194;7.690;2023-05-21T02:46:42;22.73;;;12.00;;
18449;SDS011;9354;50.194;7.690;2023-05-21T02:49:10;21.73;;;12.17;;
18449;SDS011;9354;50.194;7.690;2023-05-21T02:51:37;22.13;;;12.83;;
18449;SDS011;9354;50.194;7.690;2023-05-21T02:54:04;25.00;;;12.30;;
18449;SDS011;9354;50.194;7.690;2023-05-21T02:56:32;25.10;;;11.97;;
18449;SDS011;9354;50.194;7.690;2023-05-21T02:58:59;20.10;;;12.10;;
18449;SDS011;9354;50.194;7.690;2023-05-21T03:01:26;24.90;;;12.47;;
18449;SDS011;9354;50.194;7.690;2023-05-21T03:03:55;21.20;;;12.70;;
18449;SDS011;9354;50.194;7.690;2023-05-21T03:06:22;20.93;;;11.50;;
18449;SDS011;9354;50.194;7.690;2023-05-21T03:08:50;22.67;;;12.97;;
18449;SDS011;9354;50.194;7.690;2023-05-21T03:11:17;23.47;;;12.77;;
18449;SDS011;9354;50.194;7.690;2023-05-21T03:13:45;23.43;;;12.43;;
18449;SDS011;9354;50.194;7.690;2023-05-21T03:16:12;19.93;;;11.87;;
18449;SDS011;9354;50.194;7.690;2023-05-21T03:18:40;26.43;;;13.33;;
18449;SDS011;9354;50.194;7.690;2023-05-21T03:21:09;23.27;;;11.93;;
18449;SDS011;9354;50.194;7.690;2023-05-21T03:23:37;21.77;;;12.07;;
18449;SDS011;9354;50.194;7.690;2023-05-21T03:26:06;21.90;;;12.10;;
18449;SDS011;9354;50.194;7.690;2023-05-21T03:28:33;22.00;;;12.20;;
18449;SDS011;9354;50.194;7.690;2023-05-21T03:31:01;19.73;;;11.57;;
18449;SDS011;9354;50.194;7.690;2023-05-21T03:33:28;21.13;;;11.87;;
18449;SDS011;9354;50.194;7.690;2023-05-21T03:35:56;26.80;;;12.40;;
18449;SDS011;9354;50.194;7.690;2023-05-21T03:38:25;24.80;;;13.33;;
18449;SDS011;9354;50.194;7.690;2023-05-21T03:40:52;30.23;;;13.53;;
18449;SDS011;9354;50.194;7.690;2023-05-21T03:43:20;22.97;;;13.17;;
18449;SDS011;9354;50.194;7.690;2023-05-21T03:45:47;22.70;;;13.00;;
18449;SDS011;9354;50.194;7.690;2023-05-21T03:48:14;26.30;;;13.03;;
18449;SDS011;9354;50.194;7.690;2023-05-21T03:50:42;27.37;;;13.70;;
18449;SDS011;9354;50.194;7.690;2023-05-21T03:53:10;22.87;;;12.40;;
18449;SDS011;9354;50.194;7.690;2023-05-21T03:55:39;26.77;;;12.03;;
18449;SDS011;9354;50.194;7.690;2023-05-21T03:58:07;22.10;;;12.83;;
18449;SDS011;9354;50.194;7.690;2023-05-21T04:00:35;25.43;;;13.43;;
18449;SDS011;9354;50.194;7.690;2023-05-21T04:03:03;24.30;;;13.20;;
18449;SDS011;9354;50.194;7.690;2023-05-21T04:05:31;22.67;;;12.33;;
18449;SDS011;9354;50.194;7.690;2023-05-21T04:07:58;24.50;;;13.73;;
18449;SDS011;9354;50.194;7.690;2023-05-21T04:10:26;22.93;;;12.97;;
18449;SDS011;9354;50.194;7.690;2023-05-21T04:12:55;24.87;;;13.43;;
18449;SDS011;9354;50.194;7.690;2023-05-21T04:15:22;23.07;;;12.67;;
18449;SDS011;9354;50.194;7.690;2023-05-21T04:17:50;24.10;;;12.53;;
18449;SDS011;9354;50.194;7.690;2023-05-21T04:20:18;27.40;;;13.27;;
18449;SDS011;9354;50.194;7.690;2023-05-21T04:22:46;31.20;;;13.57;;
18449;SDS011;9354;50.194;7.690;2023-05-21T04:25:14;21.87;;;12.57;;
18449;SDS011;9354;50.194;7.690;2023-05-21T04:27:41;25.03;;;13.03;;
18449;SDS011;9354;50.194;7.690;2023-05-21T04:30:13;25.17;;;12.73;;
18449;SDS011;9354;50.194;7.690;2023-05-21T04:32:41;26.63;;;13.00;;
18449;SDS011;9354;50.194;7.690;2023-05-21T04:35:10;25.83;;;13.40;;
18449;SDS011;9354;50.194;7.690;2023-05-21T04:37:39;25.00;;;12.90;;
18449;SDS011;9354;50.194;7.690;2023-05-21T04:40:10;26.57;;;13.80;;
18449;SDS011;9354;50.194;7.690;2023-05-21T04:42:43;25.13;;;13.40;;
18449;SDS011;9354;50.194;7.690;2023-05-21T04:45:11;23.43;;;12.47;;
18449;SDS011;9354;50.194;7.690;2023-05-21T04:47:41;24.40;;;12.80;;
18449;SDS011;9354;50.194;7.690;2023-05-21T04:50:09;20.97;;;11.90;;
18449;SDS011;9354;50.194;7.690;2023-05-21T04:52:38;27.90;;;12.33;;
18449;SDS011;9354;50.194;7.690;2023-05-21T04:55:06;24.23;;;13.37;;
18449;SDS011;9354;50.194;7.690;2023-05-21T04:57:34;21.93;;;12.67;;
18449;SDS011;9354;50.194;7.690;2023-05-21T05:00:01;20.43;;;12.10;;
18449;SDS011;9354;50.194;7.690;2023-05-21T05:02:30;24.33;;;12.73;;
18449;SDS011;9354;50.194;7.690;2023-05-21T05:04:59;25.20;;;12.17;;
18449;SDS011;9354;50.194;7.690;2023-05-21T05:07:26;25.00;;;12.47;;
18449;SDS011;9354;50.194;7.690;2023-05-21T05:09:54;22.13;;;12.80;;
18449;SDS011;9354;50.194;7.690;2023-05-21T05:12:21;27.43;;;13.27;;
18449;SDS011;9354;50.194;7.690;2023-05-21T05:14:48;24.27;;;13.00;;
18449;SDS011;9354;50.194;7.690;2023-05-21T05:17:16;22.27;;;13.70;;
18449;SDS011;9354;50.194;7.690;2023-05-21T05:19:43;20.87;;;12.10;;
18449;SDS011;9354;50.194;7.690;2023-05-21T05:22:12;21.50;;;12.60;;
18449;SDS011;9354;50.194;7.690;2023-05-21T05:24:39;21.33;;;11.63;;
18449;SDS011;9354;50.194;7.690;2023-05-21T05:27:07;20.03;;;12.47;;
18449;SDS011;9354;50.194;7.690;2023-05-21T05:29:34;22.43;;;12.47;;
18449;SDS011;9354;50.194;7.690;2023-05-21T05:32:01;22.57;;;11.83;;
18449;SDS011;9354;50.194;7.690;2023-05-21T05:34:29;21.63;;;11.83;;
18449;SDS011;9354;50.194;7.690;2023-05-21T05:36:56;23.27;;;11.97;;
18449;SDS011;9354;50.194;7.690;2023-05-21T05:39:25;22.67;;;12.50;;
18449;SDS011;9354;50.194;7.690;2023-05-21T05:41:53;20.67;;;11.77;;
18449;SDS011;9354;50.194;7.690;2023-05-21T05:44:20;24.57;;;12.40;;
18449;SDS011;9354;50.194;7.690;2023-05-21T05:46:47;23.07;;;12.33;;
18449;SDS011;9354;50.194;7.690;2023-05-21T05:49:15;22.77;;;12.43;;
18449;SDS011;9354;50.194;7.690;2023-05-21T05:51:42;19.03;;;12.00;;
18449;SDS011;9354;50.194;7.690;2023-05-21T05:54:10;19.93;;;11.27;;
18449;SDS011;9354;50.194;7.690;2023-05-21T05:56:38;22.60;;;12.10;;
18449;SDS011;9354;50.194;7.690;2023-05-21T05:59:06;27.83;;;11.93;;
18449;SDS011;9354;50.194;7.690;2023-05-21T06:01:33;20.53;;;11.73;;
18449;SDS011;9354;50.194;7.690;2023-05-21T06:04:01;20.37;;;11.33;;
18449;SDS011;9354;50.194;7.690;2023-05-21T06:06:28;20.70;;;11.67;;
18449;SDS011;9354;50.194;7.690;2023-05-21T06:08:56;22.23;;;12.20;;
18449;SDS011;9354;50.194;7.690;2023-05-21T06:11:23;21.37;;;11.90;;
18449;SDS011;9354;50.194;7.690;2023-05-21T06:13:52;19.87;;;11.20;;
18449;SDS011;9354;50.194;7.690;2023-05-21T06:16:19;22.13;;;11.43;;
18449;SDS011;9354;50.194;7.690;2023-05-21T06:18:46;29.30;;;12.10;;
18449;SDS011;9354;50.194;7.690;2023-05-21T06:21:14;20.23;;;12.13;;
18449;SDS011;9354;50.194;7.690;2023-05-21T06:23:41;22.30;;;11.63;;
18449;SDS011;9354;50.194;7.690;2023-05-21T06:26:09;22.77;;;12.93;;
18449;SDS011;9354;50.194;7.690;2023-05-21T06:28:36;21.50;;;12.00;;
18449;SDS011;9354;50.194;7.690;2023-05-21T06:31:05;19.93;;;11.63;;
18449;SDS011;9354;50.194;7.690;2023-05-21T06:33:32;20.17;;;11.60;;
18449;SDS011;9354;50.194;7.690;2023-05-21T06:35:59;21.13;;;11.03;;
18449;SDS011;9354;50.194;7.690;2023-05-21T06:38:27;23.37;;;11.83;;
18449;SDS011;9354;50.194;7.690;2023-05-21T06:40:54;21.00;;;11.90;;
18449;SDS011;9354;50.194;7.690;2023-05-21T06:43:22;20.27;;;11.97;;
18449;SDS011;9354;50.194;7.690;2023-05-21T06:45:50;21.90;;;11.63;;
18449;SDS011;9354;50.194;7.690;2023-05-21T06:48:19;21.53;;;12.00;;
18449;SDS011;9354;50.194;7.690;2023-05-21T06:50:46;22.23;;;12.40;;
18449;SDS011;9354;50.194;7.690;2023-05-21T06:53:13;20.50;;;11.10;;
18449;SDS011;9354;50.194;7.690;2023-05-21T06:55:41;20.00;;;11.57;;
18449;SDS011;9354;50.194;7.690;2023-05-21T06:58:09;21.53;;;11.87;;
18449;SDS011;9354;50.194;7.690;2023-05-21T07:00:37;21.47;;;12.17;;
18449;SDS011;9354;50.194;7.690;2023-05-21T07:03:04;23.70;;;12.03;;
18449;SDS011;9354;50.194;7.690;2023-05-21T07:05:33;21.00;;;11.70;;
18449;SDS011;9354;50.194;7.690;2023-05-21T07:08:01;22.67;;;11.90;;
18449;SDS011;9354;50.194;7.690;2023-05-21T07:10:28;20.53;;;11.90;;
18449;SDS011;9354;50.194;7.690;2023-05-21T07:12:55;20.30;;;12.17;;
18449;SDS011;9354;50.194;7.690;2023-05-21T07:15:23;19.90;;;11.40;;
18449;SDS011;9354;50.194;7.690;2023-05-21T07:17:50;19.73;;;11.10;;
18449;SDS011;9354;50.194;7.690;2023-05-21T07:20:17;20.03;;;11.23;;
18449;SDS011;9354;50.194;7.690;2023-05-21T07:22:46;24.87;;;11.73;;
18449;SDS011;9354;50.194;7.690;2023-05-21T07:25:14;22.37;;;11.00;;
18449;SDS011;9354;50.194;7.690;2023-05-21T07:27:41;22.57;;;11.90;;
18449;SDS011;9354;50.194;7.690;2023-05-21T07:30:09;22.10;;;11.13;;
18449;SDS011;9354;50.194;7.690;2023-05-21T07:32:37;20.67;;;11.47;;
18449;SDS011;9354;50.194;7.690;2023-05-21T07:35:04;20.93;;;11.37;;
18449;SDS011;9354;50.194;7.690;2023-05-21T07:37:32;23.50;;;11.53;;
18449;SDS011;9354;50.194;7.690;2023-05-21T07:40:01;23.00;;;11.20;;
18449;SDS011;9354;50.194;7.690;2023-05-21T07:42:29;20.07;;;10.57;;
18449;SDS011;9354;50.194;7.690;2023-05-21T07:44:56;22.13;;;10.77;;
18449;SDS011;9354;50.194;7.690;2023-05-21T07:47:24;19.90;;;10.70;;
18449;SDS011;9354;50.194;7.690;2023-05-21T07:49:51;18.93;;;10.20;;
18449;SDS011;9354;50.194;7.690;2023-05-21T07:52:19;18.67;;;9.93;;
18449;SDS011;9354;50.194;7.690;2023-05-21T07:54:46;21.43;;;10.67;;
18449;SDS011;9354;50.194;7.690;2023-05-21T07:57:15;19.70;;;10.93;;
18449;SDS011;9354;50.194;7.690;2023-05-21T07:59:42;23.73;;;11.67;;
18449;SDS011;9354;50.194;7.690;2023-05-21T08:02:10;19.57;;;11.10;;
18449;SDS011;9354;50.194;7.690;2023-05-21T08:04:37;20.87;;;11.53;;
18449;SDS011;9354;50.194;7.690;2023-05-21T08:07:04;19.43;;;11.07;;
18449;SDS011;9354;50.194;7.690;2023-05-21T08:09:32;20.00;;;10.03;;
18449;SDS011;9354;50.194;7.690;2023-05-21T08:11:59;21.97;;;11.47;;
18449;SDS011;9354;50.194;7.690;2023-05-21T08:14:28;18.77;;;11.30;;
18449;SDS011;9354;50.194;7.690;2023-05-21T08:16:56;22.63;;;11.50;;
18449;SDS011;9354;50.194;7.690;2023-05-21T08:19:23;18.93;;;10.97;;
18449;SDS011;9354;50.194;7.690;2023-05-21T08:21:50;18.40;;;10.73;;
18449;SDS011;9354;50.194;7.690;2023-05-21T08:24:19;17.90;;;10.40;;
18449;SDS011;9354;50.194;7.690;2023-05-21T08:26:47;19.30;;;10.30;;
18449;SDS011;9354;50.194;7.690;2023-05-21T08:29:15;15.63;;;10.20;;
18449;SDS011;9354;50.194;7.690;2023-05-21T08:31:44;17.23;;;10.17;;
18449;SDS011;9354;50.194;7.690;2023-05-21T08:34:12;16.60;;;10.57;;
18449;SDS011;9354;50.194;7.690;2023-05-21T08:36:40;18.93;;;10.00;;
18449;SDS011;9354;50.194;7.690;2023-05-21T08:39:10;18.97;;;10.80;;
18449;SDS011;9354;50.194;7.690;2023-05-21T08:41:38;19.27;;;10.43;;
18449;SDS011;9354;50.194;7.690;2023-05-21T08:44:10;17.77;;;9.67;;
18449;SDS011;9354;50.194;7.690;2023-05-21T08:46:38;20.33;;;11.33;;
18449;SDS011;9354;50.194;7.690;2023-05-21T08:49:09;18.40;;;9.93;;
18449;SDS011;9354;50.194;7.690;2023-05-21T08:51:38;17.67;;;10.20;;
18449;SDS011;9354;50.194;7.690;2023-05-21T08:54:06;19.40;;;11.43;;
18449;SDS011;9354;50.194;7.690;2023-05-21T08:56:34;17.83;;;10.13;;
18449;SDS011;9354;50.194;7.690;2023-05-21T08:59:05;18.00;;;10.67;;
18449;SDS011;9354;50.194;7.690;2023-05-21T09:01:33;18.30;;;10.57;;
18449;SDS011;9354;50.194;7.690;2023-05-21T09:04:02;20.40;;;11.27;;
18449;SDS011;9354;50.194;7.690;2023-05-21T09:06:32;18.47;;;10.43;;
18449;SDS011;9354;50.194;7.690;2023-05-21T09:09:01;18.57;;;10.40;;
18449;SDS011;9354;50.194;7.690;2023-05-21T09:11:35;21.60;;;10.30;;
18449;SDS011;9354;50.194;7.690;2023-05-21T09:14:03;20.63;;;10.67;;
18449;SDS011;9354;50.194;7.690;2023-05-21T09:16:31;18.80;;;11.30;;
18449;SDS011;9354;50.194;7.690;2023-05-21T09:18:59;23.17;;;10.73;;
18449;SDS011;9354;50.194;7.690;2023-05-21T09:21:27;21.53;;;10.60;;
18449;SDS011;9354;50.194;7.690;2023-05-21T09:23:57;20.00;;;11.60;;
18449;SDS011;9354;50.194;7.690;2023-05-21T09:26:26;19.83;;;11.43;;
18449;SDS011;9354;50.194;7.690;2023-05-21T09:28:55;18.20;;;10.73;;
18449;SDS011;9354;50.194;7.690;2023-05-21T09:31:25;20.60;;;11.23;;
18449;SDS011;9354;50.194;7.690;2023-05-21T09:33:52;25.97;;;12.90;;
18449;SDS011;9354;50.194;7.690;2023-05-21T09:36:21;20.03;;;11.10;;
18449;SDS011;9354;50.194;7.690;2023-05-21T09:38:49;18.73;;;11.63;;
18449;SDS011;9354;50.194;7.690;2023-05-21T09:41:21;17.20;;;10.23;;
18449;SDS011;9354;50.194;7.690;2023-05-21T09:44:00;19.67;;;10.13;;
18449;SDS011;9354;50.194;7.690;2023-05-21T09:46:36;20.10;;;10.77;;
18449;SDS011;9354;50.194;7.690;2023-05-21T09:49:04;17.67;;;9.87;;
18449;SDS011;9354;50.194;7.690;2023-05-21T09:51:31;18.60;;;11.10;;
18449;SDS011;9354;50.194;7.690;2023-05-21T09:53:58;18.73;;;10.37;;
18449;SDS011;9354;50.194;7.690;2023-05-21T09:56:28;19.03;;;9.43;;
18449;SDS011;9354;50.194;7.690;2023-05-21T09:58:57;18.03;;;9.93;;
18449;SDS011;9354;50.194;7.690;2023-05-21T10:01:26;16.87;;;9.57;;
18449;SDS011;9354;50.194;7.690;2023-05-21T10:03:56;17.70;;;10.77;;
18449;SDS011;9354;50.194;7.690;2023-05-21T10:06:25;15.77;;;10.10;;
18449;SDS011;9354;50.194;7.690;2023-05-21T10:08:54;16.60;;;10.30;;
18449;SDS011;9354;50.194;7.690;2023-05-21T10:11:22;15.47;;;9.60;;
18449;SDS011;9354;50.194;7.690;2023-05-21T10:13:54;19.03;;;9.80;;
18449;SDS011;9354;50.194;7.690;2023-05-21T10:16:23;17.50;;;9.93;;
18449;SDS011;9354;50.194;7.690;2023-05-21T10:18:51;19.90;;;9.83;;
18449;SDS011;9354;50.194;7.690;2023-05-21T10:21:22;16.40;;;9.03;;
18449;SDS011;9354;50.194;7.690;2023-05-21T10:23:50;15.40;;;9.23;;
18449;SDS011;9354;50.194;7.690;2023-05-21T10:26:21;17.27;;;10.00;;
18449;SDS011;9354;50.194;7.690;2023-05-21T10:28:50;17.27;;;9.47;;
18449;SDS011;9354;50.194;7.690;2023-05-21T10:31:19;14.23;;;9.20;;
18449;SDS011;9354;50.194;7.690;2023-05-21T10:33:48;14.13;;;9.37;;
18449;SDS011;9354;50.194;7.690;2023-05-21T10:36:16;19.23;;;10.50;;
18449;SDS011;9354;50.194;7.690;2023-05-21T10:38:43;17.23;;;9.77;;
18449;SDS011;9354;50.194;7.690;2023-05-21T10:41:12;15.83;;;10.17;;
18449;SDS011;9354;50.194;7.690;2023-05-21T10:43:48;17.63;;;9.83;;
18449;SDS011;9354;50.194;7.690;2023-05-21T10:49:22;17.17;;;9.43;;
18449;SDS011;9354;50.194;7.690;2023-05-21T10:52:02;18.03;;;10.37;;
18449;SDS011;9354;50.194;7.690;2023-05-21T10:57:33;17.50;;;9.30;;
18449;SDS011;9354;50.194;7.690;2023-05-21T11:00:14;16.17;;;10.07;;
18449;SDS011;9354;50.194;7.690;2023-05-21T11:02:46;16.03;;;10.30;;
18449;SDS011;9354;50.194;7.690;2023-05-21T11:05:16;14.20;;;9.13;;
18449;SDS011;9354;50.194;7.690;2023-05-21T11:08:04;15.47;;;10.07;;
18449;SDS011;9354;50.194;7.690;2023-05-21T11:10:44;14.40;;;9.97;;
18449;SDS011;9354;50.194;7.690;2023-05-21T11:13:17;13.57;;;9.13;;
18449;SDS011;9354;50.194;7.690;2023-05-21T11:21:34;16.63;;;10.60;;
18449;SDS011;9354;50.194;7.690;2023-05-21T11:24:03;13.33;;;9.60;;
18449;SDS011;9354;50.194;7.690;2023-05-21T11:29:34;12.93;;;9.00;;
18449;SDS011;9354;50.194;7.690;2023-05-21T11:32:05;17.23;;;9.00;;
18449;SDS011;9354;50.194;7.690;2023-05-21T11:34:39;18.27;;;9.77;;
18449;SDS011;9354;50.194;7.690;2023-05-21T11:40:21;15.23;;;9.60;;
18449;SDS011;9354;50.194;7.690;2023-05-21T11:42:51;15.20;;;9.30;;
18449;SDS011;9354;50.194;7.690;2023-05-21T11:45:19;19.33;;;9.30;;
18449;SDS011;9354;50.194;7.690;2023-05-21T11:47:47;13.33;;;9.37;;
18449;SDS011;9354;50.194;7.690;2023-05-21T11:50:17;15.47;;;9.47;;
18449;SDS011;9354;50.194;7.690;2023-05-21T11:52:45;13.63;;;9.40;;
18449;SDS011;9354;50.194;7.690;2023-05-21T11:55:14;15.20;;;9.07;;
18449;SDS011;9354;50.194;7.690;2023-05-21T11:57:46;14.40;;;9.40;;
18449;SDS011;9354;50.194;7.690;2023-05-21T12:00:17;13.43;;;8.93;;
18449;SDS011;9354;50.194;7.690;2023-05-21T12:02:46;12.10;;;8.73;;
18449;SDS011;9354;50.194;7.690;2023-05-21T12:05:15;13.33;;;9.07;;
18449;SDS011;9354;50.194;7.690;2023-05-21T12:07:47;13.33;;;8.70;;
18449;SDS011;9354;50.194;7.690;2023-05-21T12:10:15;13.73;;;8.73;;
18449;SDS011;9354;50.194;7.690;2023-05-21T12:12:46;11.37;;;8.20;;
18449;SDS011;9354;50.194;7.690;2023-05-21T12:15:15;12.67;;;9.40;;
18449;SDS011;9354;50.194;7.690;2023-05-21T12:17:44;17.10;;;9.20;;
18449;SDS011;9354;50.194;7.690;2023-05-21T12:20:18;13.17;;;8.60;;
18449;SDS011;9354;50.194;7.690;2023-05-21T12:22:47;11.60;;;8.20;;
18449;SDS011;9354;50.194;7.690;2023-05-21T12:25:16;14.87;;;9.50;;
18449;SDS011;9354;50.194;7.690;2023-05-21T12:27:44;12.30;;;7.83;;
18449;SDS011;9354;50.194;7.690;2023-05-21T12:30:12;11.23;;;7.77;;
18449;SDS011;9354;50.194;7.690;2023-05-21T12:32:41;12.77;;;8.13;;
18449;SDS011;9354;50.194;7.690;2023-05-21T12:35:20;12.07;;;7.30;;
18449;SDS011;9354;50.194;7.690;2023-05-21T12:37:48;16.07;;;7.57;;
18449;SDS011;9354;50.194;7.690;2023-05-21T12:40:16;13.70;;;7.80;;
18449;SDS011;9354;50.194;7.690;2023-05-21T12:42:43;11.90;;;7.60;;
18449;SDS011;9354;50.194;7.690;2023-05-21T12:45:11;12.87;;;7.47;;
18449;SDS011;9354;50.194;7.690;2023-05-21T12:47:39;14.13;;;7.70;;
18449;SDS011;9354;50.194;7.690;2023-05-21T12:50:07;12.17;;;7.53;;
18449;SDS011;9354;50.194;7.690;2023-05-21T12:52:38;10.17;;;7.43;;
18449;SDS011;9354;50.194;7.690;2023-05-21T12:55:07;9.50;;;7.30;;
18449;SDS011;9354;50.194;7.690;2023-05-21T12:57:36;10.13;;;7.40;;
18449;SDS011;9354;50.194;7.690;2023-05-21T13:00:04;11.93;;;7.77;;
18449;SDS011;9354;50.194;7.690;2023-05-21T13:02:33;10.00;;;7.30;;
18449;SDS011;9354;50.194;7.690;2023-05-21T13:05:06;14.63;;;7.60;;
18449;SDS011;9354;50.194;7.690;2023-05-21T13:07:35;12.57;;;8.00;;
18449;SDS011;9354;50.194;7.690;2023-05-21T13:10:05;11.70;;;7.40;;
18449;SDS011;9354;50.194;7.690;2023-05-21T13:12:33;12.20;;;8.53;;
18449;SDS011;9354;50.194;7.690;2023-05-21T13:15:01;12.03;;;8.83;;
18449;SDS011;9354;50.194;7.690;2023-05-21T13:17:30;15.10;;;8.97;;
18449;SDS011;9354;50.194;7.690;2023-05-21T13:20:04;11.10;;;8.80;;
18449;SDS011;9354;50.194;7.690;2023-05-21T13:22:33;12.90;;;9.10;;
18449;SDS011;9354;50.194;7.690;2023-05-21T13:25:05;14.17;;;8.53;;
18449;SDS011;9354;50.194;7.690;2023-05-21T13:27:34;24.20;;;9.03;;
18449;SDS011;9354;50.194;7.690;2023-05-21T13:30:01;12.00;;;7.93;;
18449;SDS011;9354;50.194;7.690;2023-05-21T13:32:29;11.97;;;8.10;;
18449;SDS011;9354;50.194;7.690;2023-05-21T13:34:56;13.13;;;8.03;;
18449;SDS011;9354;50.194;7.690;2023-05-21T13:37:24;12.17;;;8.73;;
18449;SDS011;9354;50.194;7.690;2023-05-21T13:39:51;13.87;;;7.90;;
18449;SDS011;9354;50.194;7.690;2023-05-21T13:42:20;11.13;;;8.20;;
18449;SDS011;9354;50.194;7.690;2023-05-21T13:44:48;14.33;;;8.30;;
18449;SDS011;9354;50.194;7.690;2023-05-21T13:47:15;15.93;;;8.80;;
18449;SDS011;9354;50.194;7.690;2023-05-21T13:49:43;13.77;;;8.73;;
18449;SDS011;9354;50.194;7.690;2023-05-21T13:52:13;12.53;;;9.00;;
18449;SDS011;9354;50.194;7.690;2023-05-21T13:54:41;13.73;;;8.47;;
18449;SDS011;9354;50.194;7.690;2023-05-21T13:57:09;14.23;;;8.90;;
18449;SDS011;9354;50.194;7.690;2023-05-21T13:59:38;12.00;;;8.57;;
18449;SDS011;9354;50.194;7.690;2023-05-21T14:02:06;11.80;;;8.40;;
18449;SDS011;9354;50.194;7.690;2023-05-21T14:04:34;10.73;;;7.87;;
18449;SDS011;9354;50.194;7.690;2023-05-21T14:07:02;13.70;;;9.00;;
18449;SDS011;9354;50.194;7.690;2023-05-21T14:09:29;13.23;;;9.03;;
18449;SDS011;9354;50.194;7.690;2023-05-21T14:11:57;12.80;;;8.77;;
18449;SDS011;9354;50.194;7.690;2023-05-21T14:14:24;12.83;;;8.93;;
18449;SDS011;9354;50.194;7.690;2023-05-21T14:16:53;10.60;;;7.83;;
18449;SDS011;9354;50.194;7.690;2023-05-21T14:19:20;13.10;;;8.70;;
18449;SDS011;9354;50.194;7.690;2023-05-21T14:21:50;13.20;;;9.27;;
18449;SDS011;9354;50.194;7.690;2023-05-21T14:24:17;12.90;;;8.57;;
18449;SDS011;9354;50.194;7.690;2023-05-21T14:26:45;12.63;;;8.43;;
18449;SDS011;9354;50.194;7.690;2023-05-21T14:29:13;11.63;;;8.80;;
18449;SDS011;9354;50.194;7.690;2023-05-21T14:31:40;14.00;;;9.37;;
18449;SDS011;9354;50.194;7.690;2023-05-21T14:34:09;12.67;;;8.80;;
18449;SDS011;9354;50.194;7.690;2023-05-21T14:36:36;31.67;;;9.33;;
18449;SDS011;9354;50.194;7.690;2023-05-21T14:39:03;12.93;;;8.77;;
18449;SDS011;9354;50.194;7.690;2023-05-21T14:41:31;12.63;;;9.20;;
18449;SDS011;9354;50.194;7.690;2023-05-21T14:43:58;13.40;;;9.27;;
18449;SDS011;9354;50.194;7.690;2023-05-21T14:46:26;12.43;;;8.83;;
18449;SDS011;9354;50.194;7.690;2023-05-21T14:48:53;13.93;;;9.90;;
18449;SDS011;9354;50.194;7.690;2023-05-21T14:51:25;14.67;;;9.23;;
18449;SDS011;9354;50.194;7.690;2023-05-21T14:53:52;14.67;;;9.30;;
18449;SDS011;9354;50.194;7.690;2023-05-21T14:56:21;13.87;;;9.30;;
18449;SDS011;9354;50.194;7.690;2023-05-21T14:58:51;17.27;;;9.27;;
18449;SDS011;9354;50.194;7.690;2023-05-21T15:01:19;17.23;;;10.00;;
18449;SDS011;9354;50.194;7.690;2023-05-21T15:03:46;15.23;;;9.90;;